Time;durP1;ratioP1;P1;durP2;ratioP2;P2;SDS_P1;SDS_P2;PMS_P1;PMS_P2;Temp;Humidity;BMP_temperature;BMP_pressure;BME280_temperature;BME280_humidity;BME280_pressure;Samples;Min_cycle;Max_cycle;Signal;HPM_P1;HPM_P2
2021/04/27 00:02:11;;;;;;;0.82;0.40;;;5.10;99.90;;;;;;5046161;28;20052;-75
2021/04/27 00:04:37;;;;;;;2.33;0.60;;;5.00;99.90;;;;;;5046206;28;20030;-74
2021/04/27 00:07:02;;;;;;;0.75;0.35;;;5.00;99.90;;;;;;5044880;28;20045;-72
2021/04/27 00:09:28;;;;;;;1.65;0.57;;;5.00;99.90;;;;;;5045770;28;20038;-73
2021/04/27 00:11:54;;;;;;;3.78;0.40;;;5.00;99.90;;;;;;5045775;28;20051;-74
2021/04/27 00:14:19;;;;;;;1.08;0.57;;;5.00;99.90;;;;;;5045733;28;20021;-73
2021/04/27 00:16:45;;;;;;;0.95;0.47;;;4.90;99.90;;;;;;5046005;28;20035;-73
2021/04/27 00:19:10;;;;;;;2.08;0.55;;;4.90;99.90;;;;;;5046108;28;20957;-72
2021/04/27 00:21:37;;;;;;;0.50;0.50;;;4.90;99.90;;;;;;5046077;28;20378;-74
2021/04/27 00:24:04;;;;;;;0.50;0.30;;;4.80;99.90;;;;;;5044302;28;20082;-73
2021/04/27 00:26:30;;;;;;;2.63;0.55;;;4.80;99.90;;;;;;5045622;28;20051;-75
2021/04/27 00:28:56;;;;;;;0.63;0.50;;;4.80;99.90;;;;;;5044308;28;20049;-74
2021/04/27 00:31:22;;;;;;;1.48;0.65;;;4.80;99.90;;;;;;5045537;28;20041;-74
2021/04/27 00:33:47;;;;;;;7.45;0.73;;;4.70;99.90;;;;;;5045531;28;20529;-75
2021/04/27 00:36:13;;;;;;;7.82;1.08;;;4.70;99.90;;;;;;5045810;28;20109;-73
2021/04/27 00:38:39;;;;;;;0.50;0.40;;;4.70;99.90;;;;;;5045650;28;20081;-73
2021/04/27 00:41:04;;;;;;;1.35;0.55;;;4.60;99.90;;;;;;5045588;28;20049;-74
2021/04/27 00:43:30;;;;;;;5.43;0.77;;;4.60;99.90;;;;;;5045386;28;20080;-73
2021/04/27 00:45:56;;;;;;;0.45;0.43;;;4.50;99.90;;;;;;5044403;28;20013;-74
2021/04/27 00:48:22;;;;;;;1.77;0.68;;;4.50;99.90;;;;;;5045288;28;20394;-74
2021/04/27 00:50:48;;;;;;;1.10;0.57;;;4.40;99.90;;;;;;5045168;28;20044;-73
2021/04/27 00:53:13;;;;;;;0.70;0.43;;;4.40;99.90;;;;;;5045266;28;20026;-74
2021/04/27 00:55:39;;;;;;;0.30;0.30;;;4.40;99.90;;;;;;5043911;28;20113;-73
2021/04/27 00:58:05;;;;;;;0.75;0.40;;;4.30;99.90;;;;;;5045443;28;20413;-74
2021/04/27 01:00:34;;;;;;;0.57;0.35;;;4.30;99.90;;;;;;5045102;28;20029;-73
2021/04/27 01:03:00;;;;;;;0.40;0.40;;;4.30;99.90;;;;;;5043591;28;20029;-74
2021/04/27 01:05:31;;;;;;;2.15;0.57;;;4.30;99.90;;;;;;5044998;28;20032;-75
2021/04/27 01:08:12;;;;;;;0.55;0.30;;;4.20;99.90;;;;;;5044882;28;20036;-73
2021/04/27 01:11:01;;;;;;;0.68;0.47;;;4.20;99.90;;;;;;5045041;28;20082;-74
2021/04/27 01:13:48;;;;;;;1.02;0.47;;;4.20;99.90;;;;;;5040574;28;20095;-75
2021/04/27 01:16:16;;;;;;;0.32;0.28;;;4.20;99.90;;;;;;5043818;28;20029;-73
2021/04/27 01:18:45;;;;;;;2.17;0.65;;;4.20;99.90;;;;;;5044818;28;20041;-75
2021/04/27 01:21:12;;;;;;;1.42;0.50;;;4.20;99.90;;;;;;5044935;28;20021;-74
2021/04/27 01:23:41;;;;;;;0.82;0.50;;;4.10;99.90;;;;;;5044594;28;20056;-74
2021/04/27 01:26:20;;;;;;;2.22;0.75;;;4.10;99.90;;;;;;5044796;28;20018;-75
2021/04/27 01:28:47;;;;;;;0.52;0.35;;;4.10;99.90;;;;;;5044781;28;20044;-74
2021/04/27 01:31:14;;;;;;;1.10;0.40;;;4.00;99.90;;;;;;5044674;28;20037;-74
2021/04/27 01:33:40;;;;;;;0.70;0.50;;;4.00;99.90;;;;;;5043333;28;20057;-75
2021/04/27 01:36:07;;;;;;;0.30;0.20;;;4.00;99.90;;;;;;5044735;28;20056;-73
2021/04/27 01:38:33;;;;;;;0.38;0.35;;;4.00;99.90;;;;;;5044703;28;20025;-73
2021/04/27 01:40:59;;;;;;;1.23;0.40;;;4.00;99.90;;;;;;5044424;28;20029;-74
2021/04/27 01:43:26;;;;;;;0.82;0.38;;;3.90;99.90;;;;;;5044680;28;20026;-75
2021/04/27 01:46:11;;;;;;;0.32;0.30;;;3.90;99.90;;;;;;5044659;28;20025;-75
2021/04/27 01:48:37;;;;;;;0.40;0.38;;;3.90;99.90;;;;;;5044963;28;20030;-74
2021/04/27 01:51:05;;;;;;;2.05;1.15;;;3.90;99.90;;;;;;5043256;28;20046;-74
2021/04/27 01:53:31;;;;;;;0.73;0.47;;;3.90;99.90;;;;;;5044313;28;20056;-74
2021/04/27 01:55:57;;;;;;;1.08;0.50;;;3.80;99.90;;;;;;5043420;28;20059;-73
2021/04/27 01:58:22;;;;;;;1.63;0.70;;;3.80;99.90;;;;;;5048585;28;20030;-75
2021/04/27 02:00:48;;;;;;;1.08;0.60;;;3.70;99.90;;;;;;5048358;28;20025;-75
2021/04/27 02:03:14;;;;;;;0.60;0.38;;;3.70;99.90;;;;;;5048558;28;20030;-74
2021/04/27 02:05:40;;;;;;;1.42;0.65;;;3.70;99.90;;;;;;5048466;28;20080;-74
2021/04/27 02:08:06;;;;;;;4.00;0.90;;;3.60;99.90;;;;;;5048369;28;20029;-73
2021/04/27 02:10:32;;;;;;;0.93;0.45;;;3.60;99.90;;;;;;5046711;28;20132;-74
2021/04/27 02:13:07;;;;;;;0.65;0.40;;;3.60;99.90;;;;;;5048303;28;20083;-75
2021/04/27 02:15:34;;;;;;;1.13;0.57;;;3.50;99.90;;;;;;5048311;28;20112;-73
2021/04/27 02:18:15;;;;;;;1.33;0.50;;;3.60;99.90;;;;;;5048076;28;20033;-75
2021/04/27 02:20:42;;;;;;;0.68;0.50;;;3.50;99.90;;;;;;5048458;28;20089;-75
2021/04/27 02:23:08;;;;;;;1.55;0.60;;;3.50;99.90;;;;;;5047851;28;20049;-74
2021/04/27 02:25:34;;;;;;;8.50;0.85;;;3.50;99.90;;;;;;5047980;28;20029;-74
2021/04/27 02:28:00;;;;;;;0.57;0.40;;;3.50;99.90;;;;;;5047761;28;20030;-75
2021/04/27 02:30:27;;;;;;;2.42;0.85;;;3.40;99.90;;;;;;5047605;28;20509;-74
2021/04/27 02:32:53;;;;;;;1.02;0.68;;;3.40;99.90;;;;;;5047913;28;20425;-73
2021/04/27 02:35:20;;;;;;;2.53;1.08;;;3.40;99.90;;;;;;5047744;28;20093;-75
2021/04/27 02:37:49;;;;;;;1.33;0.60;;;3.40;99.90;;;;;;5047570;28;20029;-75
2021/04/27 02:40:19;;;;;;;0.65;0.43;;;3.40;99.90;;;;;;5047630;28;20025;-73
2021/04/27 02:42:54;;;;;;;3.08;0.82;;;3.30;99.90;;;;;;5047604;28;20036;-74
2021/04/27 02:45:21;;;;;;;1.25;0.43;;;3.30;99.90;;;;;;5046514;28;20048;-74
2021/04/27 02:47:47;;;;;;;1.00;0.50;;;3.30;99.90;;;;;;5047498;28;20555;-73
2021/04/27 02:50:14;;;;;;;1.15;0.43;;;3.30;99.90;;;;;;5047530;28;20059;-74
2021/04/27 02:52:41;;;;;;;0.77;0.52;;;3.30;99.90;;;;;;5047494;28;20025;-75
2021/04/27 02:55:09;;;;;;;1.38;0.77;;;3.30;99.90;;;;;;5046252;28;20102;-76
2021/04/27 02:57:35;;;;;;;1.48;0.40;;;3.30;99.90;;;;;;5047529;28;20120;-73
2021/04/27 03:00:01;;;;;;;4.18;0.70;;;3.30;99.90;;;;;;5047463;28;20033;-72
2021/04/27 03:02:27;;;;;;;1.17;0.43;;;3.20;99.90;;;;;;5047197;28;20025;-73
2021/04/27 03:04:52;;;;;;;1.10;0.63;;;3.20;99.90;;;;;;5047285;28;20064;-73
2021/04/27 03:07:18;;;;;;;0.93;0.65;;;3.20;99.90;;;;;;5046792;28;20030;-74
2021/04/27 03:09:43;;;;;;;7.95;0.90;;;3.20;99.90;;;;;;5046581;28;20037;-74
2021/04/27 03:12:09;;;;;;;1.02;0.73;;;3.10;99.90;;;;;;5047286;28;20512;-75
2021/04/27 03:14:35;;;;;;;5.32;1.05;;;3.10;99.90;;;;;;5047499;28;20041;-74
2021/04/27 03:17:00;;;;;;;1.55;0.70;;;3.10;99.90;;;;;;5046987;28;20033;-75
2021/04/27 03:19:26;;;;;;;2.50;0.70;;;3.20;99.90;;;;;;5045470;28;20021;-73
2021/04/27 03:21:52;;;;;;;0.90;0.70;;;3.10;99.90;;;;;;5046743;28;20030;-74
2021/04/27 03:24:17;;;;;;;3.95;0.77;;;3.10;99.90;;;;;;5046604;28;20026;-74
2021/04/27 03:26:43;;;;;;;2.05;0.77;;;3.10;99.90;;;;;;5046719;28;20068;-76
2021/04/27 03:29:09;;;;;;;0.47;0.47;;;3.00;99.90;;;;;;5046819;28;20030;-74
2021/04/27 03:31:34;;;;;;;1.42;0.57;;;3.00;99.90;;;;;;5045855;28;20025;-73
2021/04/27 03:34:00;;;;;;;0.57;0.40;;;3.00;99.90;;;;;;5046699;28;20021;-74
2021/04/27 03:36:26;;;;;;;2.40;0.98;;;3.00;99.90;;;;;;5045249;28;20033;-74
2021/04/27 03:38:51;;;;;;;1.45;0.60;;;3.00;99.90;;;;;;5046499;28;20048;-74
2021/04/27 03:41:17;;;;;;;3.28;0.82;;;2.90;99.90;;;;;;5046396;28;20033;-73
2021/04/27 03:43:43;;;;;;;1.38;0.35;;;2.90;99.90;;;;;;5046456;28;20080;-73
2021/04/27 03:46:08;;;;;;;2.15;0.70;;;2.90;99.90;;;;;;5046826;28;20497;-74
2021/04/27 03:48:34;;;;;;;1.05;0.65;;;2.90;99.90;;;;;;5046564;28;20076;-73
2021/04/27 03:51:00;;;;;;;1.27;0.52;;;2.80;99.90;;;;;;5046478;28;20041;-73
2021/04/27 03:53:25;;;;;;;4.43;0.93;;;2.80;99.90;;;;;;5046206;28;20038;-75
2021/04/27 03:55:51;;;;;;;1.33;0.60;;;2.70;99.90;;;;;;5045351;28;20029;-73
2021/04/27 03:58:17;;;;;;;2.45;0.63;;;2.70;99.90;;;;;;5046366;28;20040;-73
2021/04/27 04:00:42;;;;;;;1.77;0.75;;;2.70;99.90;;;;;;5045102;28;20093;-72
2021/04/27 04:03:08;;;;;;;1.25;0.90;;;2.70;99.90;;;;;;5047131;28;20108;-73
2021/04/27 04:05:34;;;;;;;1.98;0.82;;;2.80;99.90;;;;;;5046082;28;20034;-73
2021/04/27 04:07:59;;;;;;;1.08;0.60;;;2.70;99.90;;;;;;5044617;28;20097;-72
2021/04/27 04:10:25;;;;;;;0.38;0.32;;;2.80;99.90;;;;;;5045446;28;20038;-74
2021/04/27 04:12:51;;;;;;;1.42;0.60;;;2.80;99.90;;;;;;5044688;28;20461;-74
2021/04/27 04:15:18;;;;;;;1.42;0.70;;;2.80;99.90;;;;;;5045907;28;20036;-74
2021/04/27 04:17:44;;;;;;;2.60;0.77;;;2.80;99.90;;;;;;5045906;28;20028;-74
2021/04/27 04:20:13;;;;;;;1.60;0.80;;;2.90;99.90;;;;;;5045794;28;20085;-74
2021/04/27 04:22:39;;;;;;;6.63;0.75;;;2.80;99.90;;;;;;5044299;28;20474;-72
2021/04/27 04:25:07;;;;;;;1.60;0.88;;;2.90;99.90;;;;;;5044319;28;20021;-74
2021/04/27 04:27:33;;;;;;;1.15;0.88;;;2.90;99.90;;;;;;5045776;28;20021;-73
2021/04/27 04:29:59;;;;;;;1.75;0.82;;;2.90;99.90;;;;;;5044172;28;20422;-74
2021/04/27 04:32:25;;;;;;;1.85;0.93;;;3.00;99.90;;;;;;5045546;28;20033;-75
2021/04/27 04:34:50;;;;;;;0.82;0.43;;;3.00;99.90;;;;;;5045532;28;20017;-75
2021/04/27 04:37:16;;;;;;;1.20;0.57;;;3.00;99.90;;;;;;5045317;28;20026;-74
2021/04/27 04:39:41;;;;;;;1.02;0.60;;;3.10;99.90;;;;;;5045461;28;20034;-73
2021/04/27 04:42:07;;;;;;;1.13;0.50;;;3.20;99.90;;;;;;5045591;28;20036;-76
2021/04/27 04:44:33;;;;;;;1.35;0.40;;;3.20;99.90;;;;;;5045779;28;20096;-74
2021/04/27 04:46:58;;;;;;;0.73;0.60;;;3.30;99.90;;;;;;5045835;28;20017;-73
2021/04/27 04:49:24;;;;;;;1.95;1.10;;;3.30;99.90;;;;;;5045653;28;20041;-73
2021/04/27 04:51:53;;;;;;;0.68;0.55;;;3.40;99.90;;;;;;5045833;28;20036;-74
2021/04/27 04:54:20;;;;;;;1.13;0.60;;;3.40;99.90;;;;;;5045569;28;20032;-74
2021/04/27 04:56:47;;;;;;;0.47;0.43;;;3.50;99.90;;;;;;5045387;28;20060;-75
2021/04/27 04:59:13;;;;;;;2.45;1.15;;;3.60;99.90;;;;;;5044421;28;20497;-73
2021/04/27 05:01:39;;;;;;;1.70;0.75;;;3.70;99.90;;;;;;5045394;28;20053;-74
2021/04/27 05:04:05;;;;;;;1.75;0.68;;;3.80;99.90;;;;;;5045486;28;20033;-75
2021/04/27 05:06:36;;;;;;;1.10;0.80;;;3.80;99.90;;;;;;5045413;28;20033;-75
2021/04/27 05:09:06;;;;;;;1.58;0.70;;;3.90;99.90;;;;;;5045285;28;20481;-74
2021/04/27 05:11:33;;;;;;;3.92;0.57;;;4.00;99.90;;;;;;5045495;28;20073;-73
2021/04/27 05:13:59;;;;;;;0.73;0.50;;;4.00;99.90;;;;;;5045259;28;20580;-75
2021/04/27 05:16:25;;;;;;;1.42;0.93;;;4.00;99.90;;;;;;5044051;28;20443;-73
2021/04/27 05:18:51;;;;;;;1.23;0.68;;;4.20;99.90;;;;;;5044008;28;20040;-73
2021/04/27 05:21:17;;;;;;;1.48;0.65;;;4.20;99.90;;;;;;5045248;28;20077;-73
2021/04/27 05:23:44;;;;;;;2.30;0.52;;;4.30;99.90;;;;;;5045430;28;20080;-73
2021/04/27 05:26:10;;;;;;;1.42;0.95;;;4.40;99.90;;;;;;5047146;28;20055;-75
2021/04/27 05:28:36;;;;;;;1.88;1.00;;;4.40;99.90;;;;;;5052093;28;20029;-74
2021/04/27 05:31:02;;;;;;;1.38;0.75;;;4.40;99.90;;;;;;5064169;28;20051;-79
2021/04/27 05:33:27;;;;;;;2.95;0.93;;;4.50;99.90;;;;;;5063585;28;20063;-76
2021/04/27 05:35:53;;;;;;;0.60;0.60;;;4.50;99.90;;;;;;5064856;28;20029;-75
2021/04/27 05:38:19;;;;;;;1.48;0.80;;;4.60;99.90;;;;;;5064776;28;20021;-76
2021/04/27 05:40:44;;;;;;;1.65;0.90;;;4.60;99.90;;;;;;5064673;28;20064;-75
2021/04/27 05:43:10;;;;;;;1.67;0.80;;;4.60;99.90;;;;;;5064998;28;20105;-75
2021/04/27 05:45:36;;;;;;;2.72;1.17;;;4.60;99.90;;;;;;5064796;28;20505;-76
2021/04/27 05:48:01;;;;;;;2.85;1.27;;;4.60;99.90;;;;;;5064740;28;20048;-75
2021/04/27 05:50:27;;;;;;;0.88;0.40;;;4.60;99.90;;;;;;5062925;28;20490;-74
2021/04/27 05:52:53;;;;;;;1.63;1.02;;;4.70;99.90;;;;;;5062294;28;20064;-74
2021/04/27 05:55:19;;;;;;;1.13;0.73;;;4.70;99.90;;;;;;5063279;28;20024;-76
2021/04/27 05:57:45;;;;;;;1.10;0.65;;;4.80;99.90;;;;;;5065055;28;20033;-76
2021/04/27 06:00:11;;;;;;;0.55;0.55;;;4.80;99.90;;;;;;5064673;28;20033;-76
2021/04/27 06:02:37;;;;;;;1.67;0.80;;;4.90;99.90;;;;;;5063648;28;20025;-74
2021/04/27 06:05:03;;;;;;;3.15;0.88;;;4.90;99.90;;;;;;5064870;28;20486;-75
2021/04/27 06:07:28;;;;;;;0.70;0.60;;;5.00;99.90;;;;;;5063363;28;20033;-76
2021/04/27 06:09:54;;;;;;;1.10;0.43;;;5.00;99.90;;;;;;5064665;28;20035;-75
2021/04/27 06:12:19;;;;;;;1.73;0.63;;;5.10;99.90;;;;;;5064992;28;20084;-74
2021/04/27 06:14:45;;;;;;;1.23;0.52;;;5.10;99.90;;;;;;5064719;28;20462;-74
2021/04/27 06:17:11;;;;;;;1.98;1.00;;;5.20;99.90;;;;;;5064989;28;20060;-77
2021/04/27 06:19:36;;;;;;;3.05;0.85;;;5.20;99.90;;;;;;5065423;28;20518;-74
2021/04/27 06:22:02;;;;;;;2.35;1.00;;;5.30;99.90;;;;;;5064814;28;20044;-74
2021/04/27 06:24:28;;;;;;;0.65;0.45;;;5.30;99.90;;;;;;5063330;28;20024;-73
2021/04/27 06:26:53;;;;;;;2.25;1.17;;;5.40;99.90;;;;;;5046245;28;20041;-73
2021/04/27 06:29:19;;;;;;;1.92;0.88;;;5.40;99.90;;;;;;5044606;28;20079;-76
2021/04/27 06:31:45;;;;;;;6.10;0.93;;;5.60;99.90;;;;;;5044417;28;20033;-75
2021/04/27 06:34:10;;;;;;;1.35;0.70;;;5.60;99.90;;;;;;5043017;28;20052;-77
2021/04/27 06:36:36;;;;;;;0.90;0.65;;;5.70;99.90;;;;;;5043647;28;20030;-73
2021/04/27 06:39:04;;;;;;;1.67;1.00;;;5.80;99.90;;;;;;5044490;28;20034;-75
2021/04/27 06:41:32;;;;;;;1.25;0.63;;;5.90;99.90;;;;;;5044134;28;20116;-73
2021/04/27 06:44:02;;;;;;;1.20;0.60;;;6.00;99.90;;;;;;5046458;28;20415;-77
2021/04/27 06:46:29;;;;;;;2.17;0.77;;;6.10;99.90;;;;;;5046852;28;20025;-75
2021/04/27 06:48:55;;;;;;;2.03;0.70;;;6.20;99.90;;;;;;5048109;28;20089;-74
2021/04/27 06:51:21;;;;;;;4.10;1.30;;;6.40;99.90;;;;;;5047723;28;20053;-75
2021/04/27 06:53:48;;;;;;;4.40;1.30;;;6.50;99.90;;;;;;5047887;28;20108;-74
2021/04/27 06:56:14;;;;;;;5.85;0.70;;;6.60;99.90;;;;;;5048018;28;20026;-74
2021/04/27 06:58:40;;;;;;;1.30;0.88;;;6.70;99.90;;;;;;5046409;28;20029;-75
2021/04/27 07:01:06;;;;;;;0.88;0.75;;;6.90;99.90;;;;;;5047784;28;20552;-74
2021/04/27 07:03:33;;;;;;;1.33;0.85;;;7.00;99.90;;;;;;5047749;28;20033;-75
2021/04/27 07:05:59;;;;;;;2.08;1.05;;;7.20;99.90;;;;;;5046302;28;20070;-75
2021/04/27 07:08:25;;;;;;;2.97;1.17;;;7.30;99.90;;;;;;5047401;28;20072;-74
2021/04/27 07:10:51;;;;;;;2.60;0.85;;;7.40;99.90;;;;;;5062681;28;20066;-75
2021/04/27 07:13:17;;;;;;;2.60;1.10;;;7.50;99.90;;;;;;5046190;28;20032;-77
2021/04/27 07:15:42;;;;;;;2.13;0.70;;;7.70;99.90;;;;;;5047786;28;20030;-75
2021/04/27 07:18:08;;;;;;;1.50;0.82;;;7.70;99.90;;;;;;5062898;28;20029;-74
2021/04/27 07:20:34;;;;;;;0.60;0.40;;;7.90;99.90;;;;;;5047471;28;20029;-75
2021/04/27 07:22:59;;;;;;;0.95;0.40;;;8.00;99.90;;;;;;5045793;28;20537;-74
2021/04/27 07:25:25;;;;;;;1.38;0.85;;;8.10;99.90;;;;;;5046657;28;20039;-75
2021/04/27 07:27:51;;;;;;;2.05;0.80;;;8.30;99.90;;;;;;5045733;28;20119;-74
2021/04/27 07:30:18;;;;;;;1.90;0.95;;;8.40;99.90;;;;;;5046712;28;20037;-74
2021/04/27 07:32:44;;;;;;;2.65;1.40;;;8.60;99.90;;;;;;5046937;28;20025;-74
2021/04/27 07:35:11;;;;;;;1.65;0.80;;;8.60;99.90;;;;;;5045660;28;20033;-76
2021/04/27 07:37:36;;;;;;;1.52;0.90;;;8.70;99.90;;;;;;5047102;28;20044;-75
2021/04/27 07:40:04;;;;;;;2.47;0.68;;;8.80;98.70;;;;;;5046842;28;20021;-74
2021/04/27 07:42:30;;;;;;;3.28;1.25;;;8.90;97.50;;;;;;5047148;28;20094;-75
2021/04/27 07:44:56;;;;;;;1.30;0.98;;;8.90;97.90;;;;;;5046976;28;20037;-74
2021/04/27 07:47:21;;;;;;;3.00;0.80;;;9.10;97.70;;;;;;5057924;28;20024;-75
2021/04/27 07:49:47;;;;;;;0.90;0.80;;;9.20;96.80;;;;;;5066376;28;20045;-75
2021/04/27 07:52:13;;;;;;;1.08;0.75;;;9.30;95.60;;;;;;5064918;28;20026;-79
2021/04/27 07:54:39;;;;;;;2.70;0.93;;;9.30;95.70;;;;;;5065744;28;20048;-76
2021/04/27 07:57:05;;;;;;;2.03;0.70;;;9.40;95.10;;;;;;5065179;28;20198;-76
2021/04/27 07:59:30;;;;;;;2.60;1.13;;;9.40;95.20;;;;;;5064859;28;20045;-78
2021/04/27 08:01:56;;;;;;;1.50;0.80;;;9.40;95.30;;;;;;5065074;28;20040;-77
2021/04/27 08:04:22;;;;;;;1.95;1.00;;;9.50;95.10;;;;;;5064784;28;20112;-78
2021/04/27 08:06:47;;;;;;;2.65;0.88;;;9.60;94.00;;;;;;5066299;28;20036;-75
2021/04/27 08:09:13;;;;;;;0.93;0.77;;;9.60;93.30;;;;;;5066337;28;20114;-75
2021/04/27 08:11:40;;;;;;;1.17;0.70;;;9.70;93.30;;;;;;5066279;28;20044;-76
2021/04/27 08:14:07;;;;;;;1.75;0.55;;;9.80;92.80;;;;;;5064913;28;20036;-75
2021/04/27 08:16:33;;;;;;;1.88;1.20;;;9.80;92.20;;;;;;5066121;28;20032;-75
2021/04/27 08:18:59;;;;;;;1.23;0.70;;;9.80;92.00;;;;;;5066094;28;20048;-75
2021/04/27 08:21:26;;;;;;;0.68;0.50;;;9.80;91.70;;;;;;5064750;28;20029;-75
2021/04/27 08:23:52;;;;;;;5.88;0.95;;;9.90;92.30;;;;;;5064363;28;20083;-73
2021/04/27 08:26:17;;;;;;;2.38;0.85;;;10.10;92.40;;;;;;5065714;28;20029;-75
2021/04/27 08:28:44;;;;;;;2.08;1.13;;;10.10;90.30;;;;;;5064314;28;20025;-75
2021/04/27 08:31:10;;;;;;;2.25;0.93;;;10.30;91.20;;;;;;5064721;28;20037;-75
2021/04/27 08:33:37;;;;;;;2.17;0.88;;;10.50;90.80;;;;;;5064456;28;20033;-77
2021/04/27 08:36:04;;;;;;;2.97;0.80;;;10.60;90.10;;;;;;5065694;28;20088;-78
2021/04/27 08:38:31;;;;;;;6.15;1.00;;;10.80;89.90;;;;;;5063996;28;20048;-77
2021/04/27 08:40:57;;;;;;;0.88;0.40;;;10.90;90.00;;;;;;5065806;28;20084;-77
2021/04/27 08:43:22;;;;;;;1.05;0.70;;;11.00;88.30;;;;;;5065921;28;20040;-75
2021/04/27 08:45:48;;;;;;;2.67;0.85;;;11.20;90.00;;;;;;5064099;28;20068;-76
2021/04/27 08:48:15;;;;;;;2.22;0.73;;;11.30;86.70;;;;;;5066038;28;20029;-76
2021/04/27 08:50:43;;;;;;;3.05;0.77;;;11.40;87.60;;;;;;5064968;28;20065;-79
2021/04/27 08:53:10;;;;;;;4.10;0.65;;;11.60;87.80;;;;;;5065757;28;20024;-79
2021/04/27 08:55:36;;;;;;;1.63;0.80;;;11.80;84.10;;;;;;5065571;28;20127;-76
2021/04/27 08:58:10;;;;;;;1.05;0.80;;;11.70;83.20;;;;;;5065532;28;20029;-75
2021/04/27 09:00:36;;;;;;;0.57;0.55;;;11.80;82.30;;;;;;5062667;28;20029;-74
2021/04/27 09:03:06;;;;;;;0.88;0.75;;;11.70;81.60;;;;;;5064474;28;20402;-75
2021/04/27 09:05:33;;;;;;;1.55;0.63;;;11.80;84.70;;;;;;5063086;28;20071;-76
2021/04/27 09:07:59;;;;;;;1.33;0.70;;;12.00;81.70;;;;;;5063666;28;20055;-77
2021/04/27 09:10:31;;;;;;;1.95;0.80;;;12.10;80.50;;;;;;5063785;28;20040;-75
2021/04/27 09:13:01;;;;;;;1.58;0.82;;;12.20;79.50;;;;;;5064819;28;20040;-75
2021/04/27 09:15:37;;;;;;;0.70;0.63;;;12.40;78.00;;;;;;5063801;28;20039;-78
2021/04/27 09:18:22;;;;;;;1.13;0.68;;;12.40;78.90;;;;;;5065225;28;20025;-75
2021/04/27 09:20:50;;;;;;;1.70;0.75;;;12.50;78.40;;;;;;5063724;28;20025;-74
2021/04/27 09:23:15;;;;;;;1.40;0.80;;;12.70;79.70;;;;;;5064928;28;20168;-78
2021/04/27 09:25:41;;;;;;;1.75;0.77;;;12.70;77.40;;;;;;5055082;28;20097;-76
2021/04/27 09:28:07;;;;;;;0.77;0.50;;;12.70;76.60;;;;;;5044111;28;20025;-78
2021/04/27 09:30:32;;;;;;;1.00;0.32;;;12.70;75.40;;;;;;5042345;28;20124;-78
2021/04/27 09:33:09;;;;;;;1.73;0.75;;;12.80;77.50;;;;;;5061455;28;20051;-76
2021/04/27 09:35:42;;;;;;;1.58;0.73;;;12.70;75.70;;;;;;5056479;28;20021;-74
2021/04/27 09:38:22;;;;;;;0.98;0.68;;;12.90;75.30;;;;;;5061350;28;20060;-80
2021/04/27 09:41:00;;;;;;;1.52;0.60;;;12.90;75.70;;;;;;5046557;28;20032;-77
2021/04/27 09:43:47;;;;;;;1.88;1.00;;;12.90;74.40;;;;;;5055898;28;20032;-76
2021/04/27 09:46:16;;;;;;;1.00;0.60;;;13.10;76.40;;;;;;5052393;28;20030;-78
2021/04/27 09:48:46;;;;;;;1.95;0.52;;;13.30;76.40;;;;;;5050571;28;20025;-77
2021/04/27 09:51:14;;;;;;;3.92;0.70;;;13.50;74.70;;;;;;5052560;28;20037;-76
2021/04/27 09:53:49;;;;;;;2.08;1.00;;;13.70;73.10;;;;;;5063349;28;20056;-77
2021/04/27 09:56:35;;;;;;;1.10;0.68;;;13.70;74.90;;;;;;5060566;28;20029;-77
2021/04/27 09:59:04;;;;;;;0.82;0.52;;;13.80;71.40;;;;;;5044975;28;20427;-77
2021/04/27 10:01:31;;;;;;;1.23;0.73;;;14.00;71.60;;;;;;5043057;28;20061;-76
2021/04/27 10:03:57;;;;;;;1.38;0.75;;;14.10;74.10;;;;;;5042310;28;20030;-76
2021/04/27 10:06:23;;;;;;;0.70;0.50;;;14.40;73.90;;;;;;5042966;28;20064;-73
2021/04/27 10:08:49;;;;;;;1.52;0.70;;;14.50;70.90;;;;;;5043741;28;20030;-76
2021/04/27 10:11:16;;;;;;;1.02;0.68;;;14.60;69.80;;;;;;5044868;28;20033;-76
2021/04/27 10:13:42;;;;;;;1.92;0.80;;;14.60;70.00;;;;;;5052551;28;20030;-78
2021/04/27 10:16:10;;;;;;;0.65;0.65;;;14.70;68.80;;;;;;5058328;28;20029;-76
2021/04/27 10:18:36;;;;;;;0.95;0.50;;;14.90;69.80;;;;;;5058905;28;20394;-78
2021/04/27 10:21:04;;;;;;;1.02;0.50;;;15.00;67.80;;;;;;5046714;28;20053;-75
2021/04/27 10:23:31;;;;;;;1.38;0.80;;;15.00;67.10;;;;;;5046216;28;20049;-76
2021/04/27 10:25:57;;;;;;;1.35;0.68;;;14.90;67.70;;;;;;5047644;28;20056;-76
2021/04/27 10:28:23;;;;;;;1.27;0.82;;;15.10;68.90;;;;;;5048088;28;20025;-80
2021/04/27 10:30:49;;;;;;;0.43;0.40;;;15.30;67.80;;;;;;5046606;28;20033;-77
2021/04/27 10:33:19;;;;;;;1.17;0.65;;;15.40;66.70;;;;;;5046932;28;20034;-77
2021/04/27 10:36:02;;;;;;;2.22;0.90;;;15.60;68.50;;;;;;5048220;28;20030;-77
2021/04/27 10:38:45;;;;;;;1.92;1.13;;;15.60;65.80;;;;;;5052722;28;20025;-78
2021/04/27 10:41:13;;;;;;;4.95;1.30;;;15.50;65.80;;;;;;5049521;28;20025;-78
2021/04/27 10:43:41;;;;;;;3.30;0.93;;;15.60;66.80;;;;;;5045948;28;20025;-77
2021/04/27 10:46:34;;;;;;;0.68;0.30;;;15.80;67.90;;;;;;5046467;28;20116;-77
2021/04/27 10:49:16;;;;;;;0.68;0.57;;;16.10;64.20;;;;;;5043975;28;20072;-78
2021/04/27 10:51:43;;;;;;;0.70;0.50;;;16.40;67.90;;;;;;5046310;28;20037;-77
2021/04/27 10:54:19;;;;;;;1.33;0.47;;;16.40;64.80;;;;;;5046066;28;20092;-78
2021/04/27 10:57:00;;;;;;;9.48;0.93;;;16.50;67.70;;;;;;5047254;28;20022;-80
2021/04/27 10:59:49;;;;;;;1.90;0.60;;;16.70;65.30;;;;;;5054909;28;20390;-76
2021/04/27 11:02:20;;;;;;;0.65;0.60;;;16.80;65.40;;;;;;5067755;28;20107;-78
2021/04/27 11:04:48;;;;;;;3.85;0.80;;;16.90;62.30;;;;;;5067132;28;20111;-77
2021/04/27 11:07:19;;;;;;;1.83;1.05;;;16.90;63.20;;;;;;5067209;28;20047;-77
2021/04/27 11:10:01;;;;;;;1.38;0.63;;;17.10;66.70;;;;;;5065841;28;20025;-79
2021/04/27 11:12:30;;;;;;;0.82;0.60;;;17.30;62.20;;;;;;5067122;28;20059;-79
2021/04/27 11:15:01;;;;;;;0.75;0.68;;;17.40;62.90;;;;;;5066493;28;20029;-76
2021/04/27 11:17:29;;;;;;;1.63;0.70;;;17.60;62.90;;;;;;5064943;28;20044;-77
2021/04/27 11:19:55;;;;;;;1.85;0.75;;;17.50;60.30;;;;;;5066167;28;20109;-76
2021/04/27 11:22:24;;;;;;;5.43;1.10;;;17.30;59.90;;;;;;5062069;28;20044;-75
2021/04/27 11:24:51;;;;;;;1.45;0.98;;;17.10;61.00;;;;;;5053027;28;20034;-78
2021/04/27 11:27:21;;;;;;;2.03;1.15;;;17.20;63.20;;;;;;5066128;28;20021;-77
2021/04/27 11:30:01;;;;;;;0.95;0.70;;;17.30;61.40;;;;;;5065161;28;20083;-78
2021/04/27 11:32:31;;;;;;;1.48;1.02;;;17.30;60.20;;;;;;5066602;28;20050;-77
2021/04/27 11:35:14;;;;;;;2.22;0.93;;;17.40;60.50;;;;;;5065248;28;20040;-79
2021/04/27 11:37:41;;;;;;;1.58;0.93;;;17.30;59.30;;;;;;5065256;28;20423;-77
2021/04/27 11:40:29;;;;;;;1.77;0.90;;;17.30;59.50;;;;;;5066347;28;20032;-80
2021/04/27 11:43:01;;;;;;;5.45;1.13;;;17.50;60.70;;;;;;5065222;28;20032;-77
2021/04/27 11:45:29;;;;;;;1.92;0.55;;;17.70;58.60;;;;;;5064879;28;20092;-77
2021/04/27 11:47:55;;;;;;;0.95;0.57;;;17.80;59.20;;;;;;5064904;28;20055;-77
2021/04/27 11:50:26;;;;;;;1.38;0.88;;;17.80;58.60;;;;;;5065045;28;20033;-77
2021/04/27 11:52:54;;;;;;;1.67;0.80;;;17.70;58.30;;;;;;5066625;28;20040;-74
2021/04/27 11:55:21;;;;;;;1.10;0.60;;;17.80;57.80;;;;;;5066627;28;20029;-76
2021/04/27 11:58:02;;;;;;;1.88;0.95;;;17.90;57.80;;;;;;5066337;28;20029;-75
2021/04/27 12:00:39;;;;;;;0.77;0.68;;;18.00;55.30;;;;;;5066413;28;20037;-76
2021/04/27 12:03:28;;;;;;;1.63;0.80;;;18.10;55.90;;;;;;5066535;28;20500;-76
2021/04/27 12:05:58;;;;;;;1.77;0.75;;;18.10;55.60;;;;;;5064686;28;20025;-76
2021/04/27 12:08:30;;;;;;;1.30;0.70;;;18.00;55.10;;;;;;5064874;28;20021;-81
2021/04/27 12:11:18;;;;;;;2.45;0.93;;;17.90;56.20;;;;;;5064353;28;20037;-77
2021/04/27 12:13:55;;;;;;;0.70;0.60;;;18.00;54.80;;;;;;5065929;28;20088;-75
2021/04/27 12:16:33;;;;;;;7.30;1.08;;;18.20;55.80;;;;;;5065779;28;20065;-76
2021/04/27 12:19:02;;;;;;;3.78;1.17;;;18.30;55.10;;;;;;5063448;28;20025;-80
2021/04/27 12:21:40;;;;;;;1.95;1.20;;;18.40;55.80;;;;;;5065529;28;20053;-77
2021/04/27 12:24:11;;;;;;;1.05;0.63;;;18.70;55.40;;;;;;5064607;28;20041;-78
2021/04/27 12:26:39;;;;;;;3.53;0.88;;;18.60;55.30;;;;;;5064203;28;20036;-76
2021/04/27 12:29:05;;;;;;;1.55;0.88;;;18.70;56.40;;;;;;5065620;28;20043;-78
2021/04/27 12:31:33;;;;;;;1.45;0.88;;;19.00;56.30;;;;;;5065378;28;20092;-78
2021/04/27 12:34:08;;;;;;;0.57;0.57;;;19.00;54.70;;;;;;5064327;28;20757;-76
2021/04/27 12:36:34;;;;;;;0.63;0.45;;;19.00;53.60;;;;;;5063741;28;20036;-77
2021/04/27 12:39:00;;;;;;;1.70;0.75;;;18.90;54.20;;;;;;5065280;28;20049;-76
2021/04/27 12:41:40;;;;;;;1.35;0.73;;;18.90;55.00;;;;;;5064787;28;20041;-77
2021/04/27 12:44:34;;;;;;;0.90;0.55;;;19.20;53.80;;;;;;5065273;28;20037;-78
2021/04/27 12:47:21;;;;;;;0.77;0.50;;;19.60;52.50;;;;;;5064741;28;20033;-76
2021/04/27 12:50:06;;;;;;;0.75;0.47;;;19.90;53.20;;;;;;5066785;28;20033;-78
2021/04/27 12:52:56;;;;;;;1.30;0.73;;;20.10;53.00;;;;;;5065494;28;20032;-76
2021/04/27 12:55:33;;;;;;;2.03;1.00;;;20.20;51.90;;;;;;5067967;28;20078;-75
2021/04/27 12:58:21;;;;;;;0.63;0.60;;;20.20;50.10;;;;;;5064540;28;20631;-78
2021/04/27 13:01:07;;;;;;;0.95;0.57;;;19.70;49.50;;;;;;5064889;28;20033;-76